sensor_id;sensor_type;location;lat;lon;timestamp;P1;durP1;ratioP1;P2;durP2;ratioP2
4080;SDS011;2055;50.074;8.436;2023-05-10T00:01:02;0.63;;;0.60;;
4080;SDS011;2055;50.074;8.436;2023-05-10T00:03:27;0.43;;;0.37;;
4080;SDS011;2055;50.074;8.436;2023-05-10T00:05:54;0.45;;;0.38;;
4080;SDS011;2055;50.074;8.436;2023-05-10T00:08:20;0.30;;;0.30;;
4080;SDS011;2055;50.074;8.436;2023-05-10T00:10:45;0.50;;;0.40;;
4080;SDS011;2055;50.074;8.436;2023-05-10T00:13:11;0.43;;;0.37;;
4080;SDS011;2055;50.074;8.436;2023-05-10T00:15:36;0.70;;;0.60;;
4080;SDS011;2055;50.074;8.436;2023-05-10T00:18:02;0.50;;;0.40;;
4080;SDS011;2055;50.074;8.436;2023-05-10T00:20:27;0.87;;;0.60;;
4080;SDS011;2055;50.074;8.436;2023-05-10T00:22:53;0.50;;;0.40;;
4080;SDS011;2055;50.074;8.436;2023-05-10T00:25:19;0.70;;;0.70;;
4080;SDS011;2055;50.074;8.436;2023-05-10T00:27:46;0.30;;;0.30;;
4080;SDS011;2055;50.074;8.436;2023-05-10T00:30:12;0.30;;;0.30;;
4080;SDS011;2055;50.074;8.436;2023-05-10T00:32:38;0.60;;;0.50;;
4080;SDS011;2055;50.074;8.436;2023-05-10T00:35:03;0.50;;;0.40;;
4080;SDS011;2055;50.074;8.436;2023-05-10T00:37:29;0.50;;;0.40;;
4080;SDS011;2055;50.074;8.436;2023-05-10T00:39:55;17.30;;;1.33;;
4080;SDS011;2055;50.074;8.436;2023-05-10T00:42:20;0.30;;;0.30;;
4080;SDS011;2055;50.074;8.436;2023-05-10T00:44:47;1.30;;;1.23;;
4080;SDS011;2055;50.074;8.436;2023-05-10T00:47:12;0.30;;;0.30;;
4080;SDS011;2055;50.074;8.436;2023-05-10T00:49:38;0.50;;;0.40;;
4080;SDS011;2055;50.074;8.436;2023-05-10T00:52:04;0.60;;;0.50;;
4080;SDS011;2055;50.074;8.436;2023-05-10T00:54:30;4.13;;;0.87;;
4080;SDS011;2055;50.074;8.436;2023-05-10T00:56:55;0.80;;;0.70;;
4080;SDS011;2055;50.074;8.436;2023-05-10T00:59:22;0.70;;;0.60;;
4080;SDS011;2055;50.074;8.436;2023-05-10T01:01:47;0.60;;;0.50;;
4080;SDS011;2055;50.074;8.436;2023-05-10T01:04:13;0.30;;;0.30;;
4080;SDS011;2055;50.074;8.436;2023-05-10T01:06:40;0.50;;;0.40;;
4080;SDS011;2055;50.074;8.436;2023-05-10T01:09:06;0.50;;;0.40;;
4080;SDS011;2055;50.074;8.436;2023-05-10T01:11:33;0.30;;;0.30;;
4080;SDS011;2055;50.074;8.436;2023-05-10T01:14:00;0.50;;;0.40;;
4080;SDS011;2055;50.074;8.436;2023-05-10T01:16:26;0.93;;;0.82;;
4080;SDS011;2055;50.074;8.436;2023-05-10T01:18:54;0.30;;;0.30;;
4080;SDS011;2055;50.074;8.436;2023-05-10T01:32:36;0.30;;;0.30;;
4080;SDS011;2055;50.074;8.436;2023-05-10T01:41:03;1.02;;;0.80;;
4080;SDS011;2055;50.074;8.436;2023-05-10T01:46:16;0.50;;;0.40;;
4080;SDS011;2055;50.074;8.436;2023-05-10T01:48:49;0.82;;;0.73;;
4080;SDS011;2055;50.074;8.436;2023-05-10T01:51:20;0.65;;;0.40;;
4080;SDS011;2055;50.074;8.436;2023-05-10T01:53:48;0.50;;;0.40;;
4080;SDS011;2055;50.074;8.436;2023-05-10T01:56:19;0.30;;;0.30;;
4080;SDS011;2055;50.074;8.436;2023-05-10T01:58:47;0.50;;;0.45;;
4080;SDS011;2055;50.074;8.436;2023-05-10T02:01:15;0.60;;;0.50;;
4080;SDS011;2055;50.074;8.436;2023-05-10T02:03:43;1.52;;;0.50;;
4080;SDS011;2055;50.074;8.436;2023-05-10T02:06:09;0.50;;;0.40;;
4080;SDS011;2055;50.074;8.436;2023-05-10T02:08:37;0.30;;;0.30;;
4080;SDS011;2055;50.074;8.436;2023-05-10T02:11:05;0.50;;;0.40;;
4080;SDS011;2055;50.074;8.436;2023-05-10T02:13:31;0.50;;;0.40;;
4080;SDS011;2055;50.074;8.436;2023-05-10T02:15:59;0.50;;;0.40;;
4080;SDS011;2055;50.074;8.436;2023-05-10T02:18:26;0.45;;;0.38;;
4080;SDS011;2055;50.074;8.436;2023-05-10T02:20:52;0.30;;;0.30;;
4080;SDS011;2055;50.074;8.436;2023-05-10T02:23:20;0.77;;;0.68;;
4080;SDS011;2055;50.074;8.436;2023-05-10T02:25:46;0.30;;;0.30;;
4080;SDS011;2055;50.074;8.436;2023-05-10T02:28:13;1.55;;;1.45;;
4080;SDS011;2055;50.074;8.436;2023-05-10T02:30:40;0.52;;;0.43;;
4080;SDS011;2055;50.074;8.436;2023-05-10T02:33:07;0.30;;;0.30;;
4080;SDS011;2055;50.074;8.436;2023-05-10T02:35:33;0.30;;;0.30;;
4080;SDS011;2055;50.074;8.436;2023-05-10T02:38:00;0.50;;;0.40;;
4080;SDS011;2055;50.074;8.436;2023-05-10T02:40:26;0.30;;;0.30;;
4080;SDS011;2055;50.074;8.436;2023-05-10T02:42:54;0.50;;;0.40;;
4080;SDS011;2055;50.074;8.436;2023-05-10T02:45:22;0.40;;;0.35;;
4080;SDS011;2055;50.074;8.436;2023-05-10T02:47:51;0.30;;;0.30;;
4080;SDS011;2055;50.074;8.436;2023-05-10T02:50:16;0.30;;;0.30;;
4080;SDS011;2055;50.074;8.436;2023-05-10T02:52:44;0.30;;;0.30;;
4080;SDS011;2055;50.074;8.436;2023-05-10T02:55:14;0.40;;;0.35;;
4080;SDS011;2055;50.074;8.436;2023-05-10T02:58:02;0.50;;;0.40;;
4080;SDS011;2055;50.074;8.436;2023-05-10T03:00:27;0.30;;;0.30;;
4080;SDS011;2055;50.074;8.436;2023-05-10T03:02:53;0.30;;;0.30;;
4080;SDS011;2055;50.074;8.436;2023-05-10T03:05:19;0.50;;;0.40;;
4080;SDS011;2055;50.074;8.436;2023-05-10T03:07:45;0.30;;;0.30;;
4080;SDS011;2055;50.074;8.436;2023-05-10T03:10:11;0.30;;;0.30;;
4080;SDS011;2055;50.074;8.436;2023-05-10T03:12:56;0.50;;;0.40;;
4080;SDS011;2055;50.074;8.436;2023-05-10T03:15:39;0.30;;;0.30;;
4080;SDS011;2055;50.074;8.436;2023-05-10T03:18:08;0.50;;;0.40;;
4080;SDS011;2055;50.074;8.436;2023-05-10T03:20:46;0.30;;;0.30;;
4080;SDS011;2055;50.074;8.436;2023-05-10T03:26:05;0.30;;;0.30;;
4080;SDS011;2055;50.074;8.436;2023-05-10T03:28:32;0.30;;;0.30;;
4080;SDS011;2055;50.074;8.436;2023-05-10T03:31:02;0.30;;;0.30;;
4080;SDS011;2055;50.074;8.436;2023-05-10T03:33:30;0.43;;;0.40;;
4080;SDS011;2055;50.074;8.436;2023-05-10T03:35:56;0.50;;;0.40;;
4080;SDS011;2055;50.074;8.436;2023-05-10T03:38:22;0.30;;;0.30;;
4080;SDS011;2055;50.074;8.436;2023-05-10T03:40:47;0.50;;;0.40;;
4080;SDS011;2055;50.074;8.436;2023-05-10T03:43:13;0.30;;;0.30;;
4080;SDS011;2055;50.074;8.436;2023-05-10T03:45:38;0.30;;;0.30;;
4080;SDS011;2055;50.074;8.436;2023-05-10T03:48:04;1.27;;;1.17;;
4080;SDS011;2055;50.074;8.436;2023-05-10T03:50:30;0.30;;;0.30;;
4080;SDS011;2055;50.074;8.436;2023-05-10T03:52:56;0.43;;;0.37;;
4080;SDS011;2055;50.074;8.436;2023-05-10T03:55:22;0.30;;;0.30;;
4080;SDS011;2055;50.074;8.436;2023-05-10T03:57:48;1.63;;;0.87;;
4080;SDS011;2055;50.074;8.436;2023-05-10T04:00:14;0.50;;;0.40;;
4080;SDS011;2055;50.074;8.436;2023-05-10T04:02:40;0.30;;;0.30;;
4080;SDS011;2055;50.074;8.436;2023-05-10T04:05:06;0.30;;;0.30;;
4080;SDS011;2055;50.074;8.436;2023-05-10T04:07:32;0.50;;;0.40;;
4080;SDS011;2055;50.074;8.436;2023-05-10T04:09:57;0.30;;;0.30;;
4080;SDS011;2055;50.074;8.436;2023-05-10T04:12:23;0.30;;;0.30;;
4080;SDS011;2055;50.074;8.436;2023-05-10T04:14:48;0.50;;;0.40;;
4080;SDS011;2055;50.074;8.436;2023-05-10T04:17:14;0.50;;;0.40;;
4080;SDS011;2055;50.074;8.436;2023-05-10T04:19:40;0.30;;;0.30;;
4080;SDS011;2055;50.074;8.436;2023-05-10T04:22:05;0.50;;;0.40;;
4080;SDS011;2055;50.074;8.436;2023-05-10T04:24:31;0.30;;;0.30;;
4080;SDS011;2055;50.074;8.436;2023-05-10T04:26:56;0.37;;;0.33;;
4080;SDS011;2055;50.074;8.436;2023-05-10T04:29:22;0.40;;;0.40;;
4080;SDS011;2055;50.074;8.436;2023-05-10T04:31:47;0.50;;;0.40;;
4080;SDS011;2055;50.074;8.436;2023-05-10T04:34:13;0.50;;;0.40;;
4080;SDS011;2055;50.074;8.436;2023-05-10T04:36:39;0.30;;;0.30;;
4080;SDS011;2055;50.074;8.436;2023-05-10T04:39:04;0.50;;;0.40;;
4080;SDS011;2055;50.074;8.436;2023-05-10T04:41:30;0.50;;;0.40;;
4080;SDS011;2055;50.074;8.436;2023-05-10T04:43:56;0.30;;;0.30;;
4080;SDS011;2055;50.074;8.436;2023-05-10T04:46:21;0.30;;;0.30;;
4080;SDS011;2055;50.074;8.436;2023-05-10T04:48:47;0.30;;;0.30;;
4080;SDS011;2055;50.074;8.436;2023-05-10T04:51:12;0.30;;;0.30;;
4080;SDS011;2055;50.074;8.436;2023-05-10T04:53:38;0.73;;;0.60;;
4080;SDS011;2055;50.074;8.436;2023-05-10T04:56:03;0.30;;;0.30;;
4080;SDS011;2055;50.074;8.436;2023-05-10T04:58:29;0.70;;;0.60;;
4080;SDS011;2055;50.074;8.436;2023-05-10T05:00:55;0.60;;;0.50;;
4080;SDS011;2055;50.074;8.436;2023-05-10T05:03:20;1.00;;;0.90;;
4080;SDS011;2055;50.074;8.436;2023-05-10T05:05:47;1.48;;;1.48;;
4080;SDS011;2055;50.074;8.436;2023-05-10T05:08:12;0.50;;;0.40;;
4080;SDS011;2055;50.074;8.436;2023-05-10T05:10:38;0.50;;;0.40;;
4080;SDS011;2055;50.074;8.436;2023-05-10T05:13:03;0.60;;;0.60;;
4080;SDS011;2055;50.074;8.436;2023-05-10T05:15:29;0.50;;;0.40;;
4080;SDS011;2055;50.074;8.436;2023-05-10T05:17:55;0.65;;;0.55;;
4080;SDS011;2055;50.074;8.436;2023-05-10T05:20:21;0.97;;;0.87;;
4080;SDS011;2055;50.074;8.436;2023-05-10T05:22:46;1.03;;;0.93;;
4080;SDS011;2055;50.074;8.436;2023-05-10T05:25:12;0.30;;;0.30;;
4080;SDS011;2055;50.074;8.436;2023-05-10T05:27:39;0.30;;;0.30;;
4080;SDS011;2055;50.074;8.436;2023-05-10T05:30:04;0.30;;;0.30;;
4080;SDS011;2055;50.074;8.436;2023-05-10T05:32:31;0.50;;;0.40;;
4080;SDS011;2055;50.074;8.436;2023-05-10T05:34:56;0.50;;;0.40;;
4080;SDS011;2055;50.074;8.436;2023-05-10T05:37:22;0.30;;;0.30;;
4080;SDS011;2055;50.074;8.436;2023-05-10T05:39:49;0.50;;;0.40;;
4080;SDS011;2055;50.074;8.436;2023-05-10T05:42:14;0.30;;;0.30;;
4080;SDS011;2055;50.074;8.436;2023-05-10T05:44:42;0.50;;;0.40;;
4080;SDS011;2055;50.074;8.436;2023-05-10T05:47:08;0.30;;;0.30;;
4080;SDS011;2055;50.074;8.436;2023-05-10T05:49:34;0.50;;;0.40;;
4080;SDS011;2055;50.074;8.436;2023-05-10T05:52:00;0.30;;;0.30;;
4080;SDS011;2055;50.074;8.436;2023-05-10T05:54:26;0.30;;;0.30;;
4080;SDS011;2055;50.074;8.436;2023-05-10T05:56:55;0.30;;;0.30;;
4080;SDS011;2055;50.074;8.436;2023-05-10T05:59:24;1.02;;;0.93;;
4080;SDS011;2055;50.074;8.436;2023-05-10T06:01:50;0.50;;;0.40;;
4080;SDS011;2055;50.074;8.436;2023-05-10T06:04:16;7.60;;;2.70;;
4080;SDS011;2055;50.074;8.436;2023-05-10T06:06:42;0.55;;;0.47;;
4080;SDS011;2055;50.074;8.436;2023-05-10T06:09:08;0.50;;;0.50;;
4080;SDS011;2055;50.074;8.436;2023-05-10T06:11:34;0.85;;;0.80;;
4080;SDS011;2055;50.074;8.436;2023-05-10T06:14:00;1.37;;;0.80;;
4080;SDS011;2055;50.074;8.436;2023-05-10T06:16:26;0.30;;;0.30;;
4080;SDS011;2055;50.074;8.436;2023-05-10T06:18:52;0.50;;;0.40;;
4080;SDS011;2055;50.074;8.436;2023-05-10T06:21:21;0.95;;;0.60;;
4080;SDS011;2055;50.074;8.436;2023-05-10T06:23:46;0.50;;;0.40;;
4080;SDS011;2055;50.074;8.436;2023-05-10T06:26:12;9.80;;;2.60;;
4080;SDS011;2055;50.074;8.436;2023-05-10T06:28:38;0.40;;;0.35;;
4080;SDS011;2055;50.074;8.436;2023-05-10T06:31:05;0.30;;;0.30;;
4080;SDS011;2055;50.074;8.436;2023-05-10T06:33:31;0.70;;;0.60;;
4080;SDS011;2055;50.074;8.436;2023-05-10T06:35:57;0.50;;;0.40;;
4080;SDS011;2055;50.074;8.436;2023-05-10T06:38:22;1.43;;;1.27;;
4080;SDS011;2055;50.074;8.436;2023-05-10T06:40:48;0.70;;;0.50;;
4080;SDS011;2055;50.074;8.436;2023-05-10T06:43:14;0.50;;;0.40;;
4080;SDS011;2055;50.074;8.436;2023-05-10T06:45:39;0.50;;;0.40;;
4080;SDS011;2055;50.074;8.436;2023-05-10T06:48:05;1.00;;;0.90;;
4080;SDS011;2055;50.074;8.436;2023-05-10T06:50:31;0.30;;;0.30;;
4080;SDS011;2055;50.074;8.436;2023-05-10T06:52:58;0.50;;;0.40;;
4080;SDS011;2055;50.074;8.436;2023-05-10T06:55:24;11.10;;;2.00;;
4080;SDS011;2055;50.074;8.436;2023-05-10T06:57:49;0.50;;;0.40;;
4080;SDS011;2055;50.074;8.436;2023-05-10T07:00:15;0.50;;;0.40;;
4080;SDS011;2055;50.074;8.436;2023-05-10T07:02:41;0.30;;;0.30;;
4080;SDS011;2055;50.074;8.436;2023-05-10T07:05:07;0.80;;;0.70;;
4080;SDS011;2055;50.074;8.436;2023-05-10T07:07:33;0.50;;;0.40;;
4080;SDS011;2055;50.074;8.436;2023-05-10T07:09:59;0.30;;;0.30;;
4080;SDS011;2055;50.074;8.436;2023-05-10T07:12:25;0.50;;;0.40;;
4080;SDS011;2055;50.074;8.436;2023-05-10T07:14:51;0.50;;;0.40;;
4080;SDS011;2055;50.074;8.436;2023-05-10T07:17:16;0.50;;;0.50;;
4080;SDS011;2055;50.074;8.436;2023-05-10T07:19:42;0.87;;;0.77;;
4080;SDS011;2055;50.074;8.436;2023-05-10T07:22:08;0.50;;;0.40;;
4080;SDS011;2055;50.074;8.436;2023-05-10T07:24:33;0.50;;;0.40;;
4080;SDS011;2055;50.074;8.436;2023-05-10T07:26:59;0.50;;;0.40;;
4080;SDS011;2055;50.074;8.436;2023-05-10T07:29:25;0.47;;;0.43;;
4080;SDS011;2055;50.074;8.436;2023-05-10T07:31:50;0.50;;;0.40;;
4080;SDS011;2055;50.074;8.436;2023-05-10T07:34:16;0.40;;;0.40;;
4080;SDS011;2055;50.074;8.436;2023-05-10T07:36:41;0.50;;;0.40;;
4080;SDS011;2055;50.074;8.436;2023-05-10T07:39:07;0.70;;;0.60;;
4080;SDS011;2055;50.074;8.436;2023-05-10T07:41:33;0.60;;;0.50;;
4080;SDS011;2055;50.074;8.436;2023-05-10T07:43:58;0.70;;;0.60;;
4080;SDS011;2055;50.074;8.436;2023-05-10T07:46:24;0.90;;;0.80;;
4080;SDS011;2055;50.074;8.436;2023-05-10T07:48:49;0.60;;;0.50;;
4080;SDS011;2055;50.074;8.436;2023-05-10T07:51:15;0.60;;;0.50;;
4080;SDS011;2055;50.074;8.436;2023-05-10T07:53:40;0.60;;;0.50;;
4080;SDS011;2055;50.074;8.436;2023-05-10T07:58:47;0.70;;;0.70;;
4080;SDS011;2055;50.074;8.436;2023-05-10T08:01:12;1.20;;;1.10;;
4080;SDS011;2055;50.074;8.436;2023-05-10T08:03:38;0.60;;;0.50;;
4080;SDS011;2055;50.074;8.436;2023-05-10T08:06:03;0.43;;;0.40;;
4080;SDS011;2055;50.074;8.436;2023-05-10T08:08:29;1.63;;;1.53;;
4080;SDS011;2055;50.074;8.436;2023-05-10T08:10:54;2.33;;;1.07;;
4080;SDS011;2055;50.074;8.436;2023-05-10T08:13:20;0.80;;;0.70;;
4080;SDS011;2055;50.074;8.436;2023-05-10T08:15:46;0.70;;;0.60;;
4080;SDS011;2055;50.074;8.436;2023-05-10T08:18:12;0.60;;;0.50;;
4080;SDS011;2055;50.074;8.436;2023-05-10T08:20:37;0.60;;;0.50;;
4080;SDS011;2055;50.074;8.436;2023-05-10T08:23:03;0.60;;;0.50;;
4080;SDS011;2055;50.074;8.436;2023-05-10T08:25:28;0.70;;;0.70;;
4080;SDS011;2055;50.074;8.436;2023-05-10T08:27:54;1.13;;;0.70;;
4080;SDS011;2055;50.074;8.436;2023-05-10T08:30:19;0.67;;;0.57;;
4080;SDS011;2055;50.074;8.436;2023-05-10T08:32:45;0.93;;;0.63;;
4080;SDS011;2055;50.074;8.436;2023-05-10T08:35:10;0.60;;;0.50;;
4080;SDS011;2055;50.074;8.436;2023-05-10T08:37:36;0.70;;;0.60;;
4080;SDS011;2055;50.074;8.436;2023-05-10T08:40:02;0.70;;;0.60;;
4080;SDS011;2055;50.074;8.436;2023-05-10T08:42:28;0.80;;;0.70;;
4080;SDS011;2055;50.074;8.436;2023-05-10T08:44:56;0.70;;;0.60;;
4080;SDS011;2055;50.074;8.436;2023-05-10T08:47:23;0.90;;;0.80;;
4080;SDS011;2055;50.074;8.436;2023-05-10T08:49:50;0.70;;;0.60;;
4080;SDS011;2055;50.074;8.436;2023-05-10T08:52:17;0.80;;;0.70;;
4080;SDS011;2055;50.074;8.436;2023-05-10T08:54:43;0.60;;;0.50;;
4080;SDS011;2055;50.074;8.436;2023-05-10T08:57:09;3.10;;;1.23;;
4080;SDS011;2055;50.074;8.436;2023-05-10T08:59:35;0.90;;;0.80;;
4080;SDS011;2055;50.074;8.436;2023-05-10T09:02:04;0.70;;;0.60;;
4080;SDS011;2055;50.074;8.436;2023-05-10T09:04:30;0.80;;;0.70;;
4080;SDS011;2055;50.074;8.436;2023-05-10T09:06:56;0.80;;;0.70;;
4080;SDS011;2055;50.074;8.436;2023-05-10T09:09:22;0.70;;;0.60;;
4080;SDS011;2055;50.074;8.436;2023-05-10T09:11:50;0.70;;;0.60;;
4080;SDS011;2055;50.074;8.436;2023-05-10T09:14:16;1.33;;;1.23;;
4080;SDS011;2055;50.074;8.436;2023-05-10T09:16:42;1.07;;;0.97;;
4080;SDS011;2055;50.074;8.436;2023-05-10T09:19:08;0.70;;;0.60;;
4080;SDS011;2055;50.074;8.436;2023-05-10T09:21:35;0.60;;;0.60;;
4080;SDS011;2055;50.074;8.436;2023-05-10T09:24:04;0.97;;;0.87;;
4080;SDS011;2055;50.074;8.436;2023-05-10T09:26:30;1.30;;;1.20;;
4080;SDS011;2055;50.074;8.436;2023-05-10T09:28:57;0.70;;;0.60;;
4080;SDS011;2055;50.074;8.436;2023-05-10T09:31:23;0.70;;;0.57;;
4080;SDS011;2055;50.074;8.436;2023-05-10T09:33:52;0.40;;;0.40;;
4080;SDS011;2055;50.074;8.436;2023-05-10T09:36:18;1.00;;;0.90;;
4080;SDS011;2055;50.074;8.436;2023-05-10T09:38:51;1.83;;;0.50;;
4080;SDS011;2055;50.074;8.436;2023-05-10T09:41:23;1.03;;;0.53;;
4080;SDS011;2055;50.074;8.436;2023-05-10T09:43:49;0.43;;;0.40;;
4080;SDS011;2055;50.074;8.436;2023-05-10T09:46:20;0.60;;;0.50;;
4080;SDS011;2055;50.074;8.436;2023-05-10T09:48:46;1.83;;;1.73;;
4080;SDS011;2055;50.074;8.436;2023-05-10T09:51:22;0.57;;;0.47;;
4080;SDS011;2055;50.074;8.436;2023-05-10T09:53:49;0.57;;;0.47;;
4080;SDS011;2055;50.074;8.436;2023-05-10T09:56:38;0.60;;;0.50;;
4080;SDS011;2055;50.074;8.436;2023-05-10T09:59:06;0.60;;;0.50;;
4080;SDS011;2055;50.074;8.436;2023-05-10T10:01:36;0.60;;;0.50;;
4080;SDS011;2055;50.074;8.436;2023-05-10T10:04:02;1.10;;;1.00;;
4080;SDS011;2055;50.074;8.436;2023-05-10T10:06:36;0.90;;;0.70;;
4080;SDS011;2055;50.074;8.436;2023-05-10T10:09:08;0.80;;;0.70;;
4080;SDS011;2055;50.074;8.436;2023-05-10T10:11:38;0.70;;;0.60;;
4080;SDS011;2055;50.074;8.436;2023-05-10T10:14:04;0.40;;;0.40;;
4080;SDS011;2055;50.074;8.436;2023-05-10T10:16:30;0.60;;;0.50;;
4080;SDS011;2055;50.074;8.436;2023-05-10T10:18:56;0.67;;;0.57;;
4080;SDS011;2055;50.074;8.436;2023-05-10T10:21:22;0.40;;;0.40;;
4080;SDS011;2055;50.074;8.436;2023-05-10T10:23:48;0.50;;;0.40;;
4080;SDS011;2055;50.074;8.436;2023-05-10T10:26:14;0.50;;;0.40;;
4080;SDS011;2055;50.074;8.436;2023-05-10T10:28:47;0.60;;;0.50;;
4080;SDS011;2055;50.074;8.436;2023-05-10T10:31:47;0.70;;;0.60;;
4080;SDS011;2055;50.074;8.436;2023-05-10T10:34:26;0.50;;;0.40;;
4080;SDS011;2055;50.074;8.436;2023-05-10T10:36:54;0.50;;;0.40;;
4080;SDS011;2055;50.074;8.436;2023-05-10T10:39:21;0.60;;;0.50;;
4080;SDS011;2055;50.074;8.436;2023-05-10T10:47:01;0.60;;;0.53;;
4080;SDS011;2055;50.074;8.436;2023-05-10T10:54:59;0.80;;;0.70;;
4080;SDS011;2055;50.074;8.436;2023-05-10T10:57:27;0.80;;;0.70;;
4080;SDS011;2055;50.074;8.436;2023-05-10T11:02:44;1.03;;;0.93;;
4080;SDS011;2055;50.074;8.436;2023-05-10T11:07:58;1.33;;;1.23;;
4080;SDS011;2055;50.074;8.436;2023-05-10T11:10:25;1.10;;;1.00;;
4080;SDS011;2055;50.074;8.436;2023-05-10T11:13:07;1.00;;;0.90;;
4080;SDS011;2055;50.074;8.436;2023-05-10T11:15:40;6.17;;;2.40;;
4080;SDS011;2055;50.074;8.436;2023-05-10T11:18:16;1.00;;;0.90;;
4080;SDS011;2055;50.074;8.436;2023-05-10T11:20:52;1.20;;;1.10;;
4080;SDS011;2055;50.074;8.436;2023-05-10T11:23:48;1.27;;;1.17;;
4080;SDS011;2055;50.074;8.436;2023-05-10T11:26:15;1.10;;;1.00;;
4080;SDS011;2055;50.074;8.436;2023-05-10T11:28:44;1.30;;;1.20;;
4080;SDS011;2055;50.074;8.436;2023-05-10T11:31:14;1.20;;;1.10;;
4080;SDS011;2055;50.074;8.436;2023-05-10T11:33:47;1.20;;;1.10;;
4080;SDS011;2055;50.074;8.436;2023-05-10T11:36:15;1.10;;;1.00;;
4080;SDS011;2055;50.074;8.436;2023-05-10T11:38:45;1.13;;;1.03;;
4080;SDS011;2055;50.074;8.436;2023-05-10T11:41:11;1.10;;;1.00;;
4080;SDS011;2055;50.074;8.436;2023-05-10T11:43:41;1.20;;;1.10;;
4080;SDS011;2055;50.074;8.436;2023-05-10T11:46:07;1.50;;;1.40;;
4080;SDS011;2055;50.074;8.436;2023-05-10T11:48:35;1.17;;;1.07;;
4080;SDS011;2055;50.074;8.436;2023-05-10T11:51:01;1.13;;;1.03;;
4080;SDS011;2055;50.074;8.436;2023-05-10T11:53:27;1.30;;;1.20;;
4080;SDS011;2055;50.074;8.436;2023-05-10T11:56:17;1.40;;;1.30;;
4080;SDS011;2055;50.074;8.436;2023-05-10T11:58:42;1.23;;;1.13;;
4080;SDS011;2055;50.074;8.436;2023-05-10T12:01:08;1.27;;;1.17;;
4080;SDS011;2055;50.074;8.436;2023-05-10T12:03:35;1.20;;;1.10;;
4080;SDS011;2055;50.074;8.436;2023-05-10T12:06:01;1.47;;;1.37;;
4080;SDS011;2055;50.074;8.436;2023-05-10T12:08:28;1.30;;;1.20;;
4080;SDS011;2055;50.074;8.436;2023-05-10T12:11:04;1.27;;;1.17;;
4080;SDS011;2055;50.074;8.436;2023-05-10T12:13:38;1.20;;;1.10;;
4080;SDS011;2055;50.074;8.436;2023-05-10T12:18:43;1.50;;;1.40;;
4080;SDS011;2055;50.074;8.436;2023-05-10T12:21:09;1.63;;;1.53;;
4080;SDS011;2055;50.074;8.436;2023-05-10T12:23:38;1.60;;;1.50;;
4080;SDS011;2055;50.074;8.436;2023-05-10T12:26:04;2.30;;;1.77;;
4080;SDS011;2055;50.074;8.436;2023-05-10T12:28:31;1.90;;;1.80;;
4080;SDS011;2055;50.074;8.436;2023-05-10T12:30:57;1.57;;;1.47;;
4080;SDS011;2055;50.074;8.436;2023-05-10T12:33:23;1.60;;;1.50;;
4080;SDS011;2055;50.074;8.436;2023-05-10T12:35:49;1.80;;;1.70;;
4080;SDS011;2055;50.074;8.436;2023-05-10T12:38:32;1.80;;;1.70;;
4080;SDS011;2055;50.074;8.436;2023-05-10T12:41:06;1.40;;;1.30;;
4080;SDS011;2055;50.074;8.436;2023-05-10T12:43:33;1.17;;;1.07;;
4080;SDS011;2055;50.074;8.436;2023-05-10T12:48:35;1.23;;;1.13;;
4080;SDS011;2055;50.074;8.436;2023-05-10T12:51:02;1.20;;;1.10;;
4080;SDS011;2055;50.074;8.436;2023-05-10T12:53:29;1.00;;;0.90;;
4080;SDS011;2055;50.074;8.436;2023-05-10T12:55:55;1.00;;;0.90;;
4080;SDS011;2055;50.074;8.436;2023-05-10T12:58:20;1.00;;;0.90;;
4080;SDS011;2055;50.074;8.436;2023-05-10T13:00:46;1.03;;;0.93;;
4080;SDS011;2055;50.074;8.436;2023-05-10T13:03:11;0.97;;;0.87;;
4080;SDS011;2055;50.074;8.436;2023-05-10T13:05:37;1.10;;;1.00;;
4080;SDS011;2055;50.074;8.436;2023-05-10T13:08:03;4.77;;;1.30;;
4080;SDS011;2055;50.074;8.436;2023-05-10T13:10:29;1.00;;;0.90;;
4080;SDS011;2055;50.074;8.436;2023-05-10T13:12:56;1.30;;;1.20;;
4080;SDS011;2055;50.074;8.436;2023-05-10T13:15:22;1.33;;;1.23;;
4080;SDS011;2055;50.074;8.436;2023-05-10T13:17:47;1.43;;;1.33;;
4080;SDS011;2055;50.074;8.436;2023-05-10T13:20:13;1.50;;;1.40;;
4080;SDS011;2055;50.074;8.436;2023-05-10T13:22:39;3.13;;;1.30;;
4080;SDS011;2055;50.074;8.436;2023-05-10T13:25:05;1.73;;;1.63;;
4080;SDS011;2055;50.074;8.436;2023-05-10T13:27:31;1.40;;;1.30;;
4080;SDS011;2055;50.074;8.436;2023-05-10T13:29:57;1.50;;;1.40;;
4080;SDS011;2055;50.074;8.436;2023-05-10T13:32:24;1.20;;;1.10;;
4080;SDS011;2055;50.074;8.436;2023-05-10T13:34:50;1.20;;;1.10;;
4080;SDS011;2055;50.074;8.436;2023-05-10T13:37:16;1.60;;;1.50;;
4080;SDS011;2055;50.074;8.436;2023-05-10T13:39:41;1.40;;;1.30;;
4080;SDS011;2055;50.074;8.436;2023-05-10T13:42:07;1.30;;;1.20;;
4080;SDS011;2055;50.074;8.436;2023-05-10T13:44:32;2.00;;;1.83;;
4080;SDS011;2055;50.074;8.436;2023-05-10T13:46:58;1.40;;;1.30;;
4080;SDS011;2055;50.074;8.436;2023-05-10T13:49:24;1.10;;;1.00;;
4080;SDS011;2055;50.074;8.436;2023-05-10T13:51:50;1.20;;;1.10;;
4080;SDS011;2055;50.074;8.436;2023-05-10T13:54:15;1.10;;;1.00;;
4080;SDS011;2055;50.074;8.436;2023-05-10T13:56:44;1.10;;;1.00;;
4080;SDS011;2055;50.074;8.436;2023-05-10T13:59:12;1.10;;;1.00;;
4080;SDS011;2055;50.074;8.436;2023-05-10T14:01:38;1.40;;;1.30;;
4080;SDS011;2055;50.074;8.436;2023-05-10T14:04:04;1.10;;;1.00;;
4080;SDS011;2055;50.074;8.436;2023-05-10T14:06:30;1.10;;;1.00;;
4080;SDS011;2055;50.074;8.436;2023-05-10T14:08:55;1.30;;;1.20;;
4080;SDS011;2055;50.074;8.436;2023-05-10T14:11:21;1.20;;;1.10;;
4080;SDS011;2055;50.074;8.436;2023-05-10T14:13:48;1.30;;;1.20;;
4080;SDS011;2055;50.074;8.436;2023-05-10T14:16:14;1.33;;;1.23;;
4080;SDS011;2055;50.074;8.436;2023-05-10T14:18:39;1.40;;;1.30;;
4080;SDS011;2055;50.074;8.436;2023-05-10T14:21:05;1.70;;;1.40;;
4080;SDS011;2055;50.074;8.436;2023-05-10T14:23:31;1.40;;;1.30;;
4080;SDS011;2055;50.074;8.436;2023-05-10T14:25:56;1.70;;;1.60;;
4080;SDS011;2055;50.074;8.436;2023-05-10T14:28:22;1.67;;;1.57;;
4080;SDS011;2055;50.074;8.436;2023-05-10T14:30:48;1.40;;;1.30;;
4080;SDS011;2055;50.074;8.436;2023-05-10T14:33:14;1.60;;;1.50;;
4080;SDS011;2055;50.074;8.436;2023-05-10T14:35:39;1.43;;;1.33;;
4080;SDS011;2055;50.074;8.436;2023-05-10T14:38:05;1.60;;;1.50;;
4080;SDS011;2055;50.074;8.436;2023-05-10T14:40:31;1.50;;;1.40;;
4080;SDS011;2055;50.074;8.436;2023-05-10T14:42:56;2.30;;;1.70;;
4080;SDS011;2055;50.074;8.436;2023-05-10T14:45:22;1.77;;;1.67;;
4080;SDS011;2055;50.074;8.436;2023-05-10T14:47:48;1.43;;;1.33;;
4080;SDS011;2055;50.074;8.436;2023-05-10T14:50:14;1.13;;;1.03;;
4080;SDS011;2055;50.074;8.436;2023-05-10T14:52:41;1.40;;;1.30;;
4080;SDS011;2055;50.074;8.436;2023-05-10T14:55:07;1.50;;;1.40;;
4080;SDS011;2055;50.074;8.436;2023-05-10T14:57:33;1.60;;;1.50;;
4080;SDS011;2055;50.074;8.436;2023-05-10T14:59:58;1.30;;;1.20;;
4080;SDS011;2055;50.074;8.436;2023-05-10T15:02:24;1.40;;;1.30;;
4080;SDS011;2055;50.074;8.436;2023-05-10T15:04:50;1.30;;;1.20;;
4080;SDS011;2055;50.074;8.436;2023-05-10T15:07:15;1.30;;;1.20;;
4080;SDS011;2055;50.074;8.436;2023-05-10T15:09:43;1.40;;;1.30;;
4080;SDS011;2055;50.074;8.436;2023-05-10T15:12:11;1.20;;;1.10;;
4080;SDS011;2055;50.074;8.436;2023-05-10T15:14:37;1.43;;;1.33;;
4080;SDS011;2055;50.074;8.436;2023-05-10T15:17:02;1.80;;;1.70;;
4080;SDS011;2055;50.074;8.436;2023-05-10T15:19:28;1.50;;;1.40;;
4080;SDS011;2055;50.074;8.436;2023-05-10T15:21:54;1.60;;;1.50;;
4080;SDS011;2055;50.074;8.436;2023-05-10T15:24:20;1.33;;;1.23;;
4080;SDS011;2055;50.074;8.436;2023-05-10T15:26:46;1.73;;;1.63;;
4080;SDS011;2055;50.074;8.436;2023-05-10T15:29:12;1.70;;;1.60;;
4080;SDS011;2055;50.074;8.436;2023-05-10T15:31:48;1.80;;;1.70;;
4080;SDS011;2055;50.074;8.436;2023-05-10T15:34:15;1.50;;;1.40;;
4080;SDS011;2055;50.074;8.436;2023-05-10T15:36:41;1.40;;;1.30;;
4080;SDS011;2055;50.074;8.436;2023-05-10T15:39:06;1.30;;;1.20;;
4080;SDS011;2055;50.074;8.436;2023-05-10T15:41:34;1.50;;;1.40;;
4080;SDS011;2055;50.074;8.436;2023-05-10T15:43:59;1.40;;;1.30;;
4080;SDS011;2055;50.074;8.436;2023-05-10T15:46:25;1.40;;;1.30;;
4080;SDS011;2055;50.074;8.436;2023-05-10T15:48:54;1.20;;;1.10;;
4080;SDS011;2055;50.074;8.436;2023-05-10T15:51:21;1.27;;;1.17;;
4080;SDS011;2055;50.074;8.436;2023-05-10T15:53:47;1.07;;;0.97;;
4080;SDS011;2055;50.074;8.436;2023-05-10T15:56:12;2.33;;;1.57;;
4080;SDS011;2055;50.074;8.436;2023-05-10T15:58:38;1.70;;;1.60;;
4080;SDS011;2055;50.074;8.436;2023-05-10T16:01:04;1.20;;;1.10;;